Main page
Satellite images 10-day forecastsClimateMarine weather Cyclones Lightning AirportsFAQ Newsletter About
Weather : Europe Africa North America South America Asia Australia-Oceania Others
Languages Contact

London-Southend, England

London Southend Airport

latitude: 51-34N, longitude: 000-42E, elevation: 15 m


METAR: EGMC 281520Z 26014KT CAVOK 17/01 Q1013
TAF: EGMC 281401Z 2815/2824 27012KT 9999 SCT045

Time: 16:47 (15:47 UTC)

Current weather observation

The report was made 27 minutes ago, at 15:20 UTC
Wind 14 kt from the West
Temperature 17°C
Humidity 34%
Pressure 1013 hPa
Visibility 10 km or more
no clouds below 1500 m and no cumulonimbus

Change units

Forecast

The report was made 1 hour and 46 minutes ago, at 14:01 UTC
Forecast valid from 28 at 15 UTC to 28 at 24 UTC
Wind 12 kt from the West
Visibility 10 km or more
Scattered clouds at a height of 4500 ft
The information on this site is subject to a disclaimer
Weather : Europe Africa North America South America Asia Australia-Oceania Others
Satellite images 10-day forecastsClimateMarine weather Cyclones Lightning AirportsFAQ Languages Contact Newsletter About